createdAt,value
2023-02-17T00:00:13.608Z,2.63
2023-02-17T00:02:40.805Z,3.22
2023-02-17T00:05:11.470Z,2.78
2023-02-17T00:07:39.387Z,3.60
2023-02-17T00:12:34.433Z,3.28
2023-02-17T00:15:02.974Z,3.30
2023-02-17T00:17:39.690Z,3.00
2023-02-17T00:20:11.090Z,3.00
2023-02-17T00:22:41.298Z,2.78
2023-02-17T00:25:08.919Z,4.28
2023-02-17T00:27:41.038Z,3.50
2023-02-17T00:30:09.404Z,3.45
2023-02-17T00:32:36.852Z,3.13
2023-02-17T00:35:09.270Z,3.40
2023-02-17T00:37:36.410Z,3.30
2023-02-17T00:40:03.537Z,2.42
2023-02-17T00:42:30.572Z,2.75
2023-02-17T00:45:04.540Z,3.35
2023-02-17T00:47:36.846Z,3.47
2023-02-17T00:50:04.474Z,3.38
2023-02-17T00:52:32.288Z,3.50
2023-02-17T00:55:03.850Z,3.22
2023-02-17T00:57:32.521Z,3.47
2023-02-17T01:00:01.814Z,2.72
2023-02-17T01:02:29.009Z,3.72
2023-02-17T01:04:56.110Z,3.05
2023-02-17T01:07:23.402Z,4.00
2023-02-17T01:09:51.001Z,2.30
2023-02-17T01:12:18.150Z,2.80
2023-02-17T01:14:49.412Z,2.97
2023-02-17T01:17:17.695Z,3.38
2023-02-17T01:19:45.017Z,3.85
2023-02-17T01:22:19.578Z,3.17
2023-02-17T01:24:48.139Z,4.43
2023-02-17T01:27:21.323Z,3.38
2023-02-17T01:29:53.571Z,3.28
2023-02-17T01:32:21.255Z,2.67
2023-02-17T01:34:50.232Z,3.60
2023-02-17T01:37:17.622Z,2.58
2023-02-17T01:39:44.710Z,3.90
2023-02-17T01:42:16.852Z,4.60
2023-02-17T01:45:18.109Z,2.10
2023-02-17T01:48:00.720Z,2.33
2023-02-17T01:50:40.304Z,4.28
2023-02-17T01:53:11.461Z,3.05
2023-02-17T01:55:47.819Z,3.03
2023-02-17T01:58:22.795Z,3.92
2023-02-17T02:00:54.631Z,2.10
2023-02-17T02:03:33.684Z,5.18
2023-02-17T02:06:22.183Z,3.58
2023-02-17T02:09:05.331Z,2.30
2023-02-17T02:11:34.637Z,2.08
2023-02-17T02:14:03.247Z,3.00
2023-02-17T02:16:49.809Z,2.60
2023-02-17T02:19:25.690Z,2.35
2023-02-17T02:22:23.018Z,2.65
2023-02-17T02:28:07.433Z,3.55
2023-02-17T02:31:02.095Z,3.03
2023-02-17T02:33:55.160Z,2.22
2023-02-17T02:36:41.629Z,1.75
2023-02-17T02:39:19.407Z,2.28
2023-02-17T02:41:51.172Z,2.22
2023-02-17T02:44:21.511Z,2.75
2023-02-17T02:46:58.702Z,3.33
2023-02-17T02:49:30.229Z,1.73
2023-02-17T02:52:05.876Z,2.08
2023-02-17T02:55:14.841Z,3.30
2023-02-17T02:57:59.083Z,3.10
2023-02-17T03:00:50.118Z,2.85
2023-02-17T03:03:35.494Z,1.40
2023-02-17T03:06:20.189Z,2.70
2023-02-17T03:08:54.765Z,3.10
2023-02-17T03:11:36.707Z,2.17
2023-02-17T03:14:17.054Z,2.95
2023-02-17T03:16:48.004Z,3.10
2023-02-17T03:19:17.965Z,3.20
2023-02-17T03:21:59.787Z,3.70
2023-02-17T03:24:27.349Z,2.25
2023-02-17T03:26:56.848Z,2.25
2023-02-17T03:29:25.729Z,1.98
2023-02-17T03:31:55.746Z,2.40
2023-02-17T03:34:23.119Z,2.85
2023-02-17T03:36:52.095Z,2.17
2023-02-17T03:39:19.340Z,2.55
2023-02-17T03:41:46.555Z,4.00
2023-02-17T03:44:13.720Z,2.45
2023-02-17T03:46:44.372Z,3.45
2023-02-17T03:49:13.038Z,3.22
2023-02-17T03:51:40.654Z,2.22
2023-02-17T03:54:11.392Z,2.50
2023-02-17T03:56:41.664Z,2.22
2023-02-17T03:59:09.243Z,3.08
2023-02-17T04:01:39.964Z,3.10
2023-02-17T04:04:10.701Z,3.13
2023-02-17T04:06:37.956Z,1.70
2023-02-17T04:09:08.148Z,3.10
2023-02-17T04:11:35.422Z,3.78
2023-02-17T04:14:03.176Z,2.00
2023-02-17T04:16:39.472Z,3.25
2023-02-17T04:19:07.579Z,2.35
2023-02-17T04:21:35.357Z,3.45
2023-02-17T04:24:09.820Z,2.50
2023-02-17T04:26:37.411Z,3.72
2023-02-17T04:29:06.726Z,3.63
2023-02-17T04:31:38.242Z,1.88
2023-02-17T04:34:14.276Z,1.65
2023-02-17T04:36:46.469Z,4.05
2023-02-17T04:39:13.841Z,1.00
2023-02-17T04:41:43.274Z,2.17
2023-02-17T04:44:13.488Z,2.53
2023-02-17T04:46:40.593Z,3.10
2023-02-17T04:49:10.665Z,2.92
2023-02-17T04:51:37.785Z,4.53
2023-02-17T04:54:05.211Z,2.17
2023-02-17T04:56:35.007Z,2.72
2023-02-17T04:59:04.666Z,2.28
2023-02-17T05:01:31.785Z,2.90
2023-02-17T05:03:58.881Z,1.42
2023-02-17T05:06:28.308Z,2.47
2023-02-17T05:09:00.201Z,3.22
2023-02-17T05:11:28.826Z,2.08
2023-02-17T05:13:55.873Z,2.35
2023-02-17T05:16:25.312Z,3.15
2023-02-17T05:18:52.420Z,3.50
2023-02-17T05:21:19.497Z,3.97
2023-02-17T05:23:46.574Z,2.80
2023-02-17T05:26:16.246Z,1.98
2023-02-17T05:28:43.377Z,2.28
2023-02-17T05:31:10.882Z,2.03
2023-02-17T05:33:38.049Z,3.65
2023-02-17T05:36:07.817Z,3.30
2023-02-17T05:38:35.708Z,2.78
2023-02-17T05:41:05.884Z,3.97
2023-02-17T05:43:33.740Z,1.60
2023-02-17T05:46:05.518Z,4.45
2023-02-17T05:48:33.525Z,4.20
2023-02-17T05:51:02.254Z,3.50
2023-02-17T05:53:32.478Z,3.60
2023-02-17T05:56:03.132Z,2.33
2023-02-17T05:58:33.848Z,2.92
2023-02-17T06:01:09.229Z,3.28
2023-02-17T06:03:38.008Z,2.97
2023-02-17T06:06:06.273Z,2.10
2023-02-17T06:08:40.127Z,2.15
2023-02-17T06:11:07.215Z,2.45
2023-02-17T06:13:34.275Z,3.85
2023-02-17T06:16:01.574Z,2.28
2023-02-17T06:18:29.061Z,3.65
2023-02-17T06:20:58.521Z,3.00
2023-02-17T06:23:33.510Z,2.72
2023-02-17T06:26:00.559Z,2.22
2023-02-17T06:28:27.641Z,2.75
2023-02-17T06:30:56.216Z,2.05
2023-02-17T06:33:23.321Z,2.22
2023-02-17T06:35:55.295Z,2.30
2023-02-17T06:38:22.660Z,2.97
2023-02-17T06:40:50.316Z,2.40
2023-02-17T06:43:17.345Z,2.42
2023-02-17T06:45:44.568Z,2.70
2023-02-17T06:48:11.955Z,3.60
2023-02-17T06:50:39.055Z,2.33
2023-02-17T06:53:08.572Z,2.63
2023-02-17T06:55:37.242Z,3.45
2023-02-17T06:58:04.701Z,4.43
2023-02-17T07:00:34.651Z,3.10
2023-02-17T07:03:01.828Z,3.03
2023-02-17T07:05:35.967Z,2.28
2023-02-17T07:08:04.689Z,2.30
2023-02-17T07:10:32.225Z,2.75
2023-02-17T07:12:59.450Z,2.33
2023-02-17T07:15:28.424Z,3.42
2023-02-17T07:17:59.168Z,2.47
2023-02-17T07:20:26.282Z,1.58
2023-02-17T07:22:53.384Z,2.28
2023-02-17T07:25:22.807Z,3.50
2023-02-17T07:27:52.996Z,2.90
2023-02-17T07:30:22.882Z,2.03
2023-02-17T07:32:52.549Z,1.92
2023-02-17T07:35:23.361Z,2.83
2023-02-17T07:37:56.576Z,3.17
2023-02-17T07:40:24.669Z,2.67
2023-02-17T07:42:55.229Z,3.45
2023-02-17T07:45:25.425Z,2.58
2023-02-17T07:47:52.486Z,4.05
2023-02-17T07:50:21.774Z,3.47
2023-02-17T07:52:57.596Z,2.70
2023-02-17T07:55:26.127Z,3.35
2023-02-17T07:57:53.264Z,2.35
2023-02-17T08:00:24.436Z,3.47
2023-02-17T08:02:56.820Z,1.75
2023-02-17T08:05:26.700Z,5.35
2023-02-17T08:08:23.589Z,1.90
2023-02-17T08:11:12.163Z,3.40
2023-02-17T08:13:39.508Z,2.35
2023-02-17T08:16:09.961Z,1.65
2023-02-17T08:18:37.259Z,2.30
2023-02-17T08:21:05.663Z,3.60
2023-02-17T08:23:38.530Z,3.53
2023-02-17T08:26:06.503Z,2.03
2023-02-17T08:31:04.033Z,2.58
2023-02-17T08:33:38.973Z,2.90
2023-02-17T08:36:09.565Z,2.13
2023-02-17T08:38:41.004Z,2.15
2023-02-17T08:41:20.037Z,2.25
2023-02-17T08:43:47.990Z,3.15
2023-02-17T08:46:16.233Z,2.38
2023-02-17T08:48:44.246Z,3.28
2023-02-17T08:51:24.276Z,2.97
2023-02-17T08:53:54.491Z,3.22
2023-02-17T08:56:25.627Z,2.75
2023-02-17T08:58:53.816Z,2.47
2023-02-17T09:01:22.009Z,2.08
2023-02-17T09:06:18.313Z,2.20
2023-02-17T09:08:48.628Z,1.80
2023-02-17T09:11:17.245Z,3.53
2023-02-17T09:13:44.916Z,2.05
2023-02-17T09:16:14.509Z,2.20
2023-02-17T09:18:42.185Z,1.88
2023-02-17T09:21:13.743Z,1.85
2023-02-17T09:23:44.330Z,1.90
2023-02-17T09:26:13.844Z,1.33
2023-02-17T09:28:49.104Z,2.47
2023-02-17T09:31:29.163Z,2.03
2023-02-17T09:33:56.873Z,2.25
2023-02-17T09:36:38.203Z,2.33
2023-02-17T09:39:11.511Z,1.55
2023-02-17T09:42:28.240Z,2.97
2023-02-17T09:45:08.480Z,1.88
2023-02-17T09:47:45.003Z,1.90
2023-02-17T09:50:23.494Z,1.83
2023-02-17T09:53:05.687Z,1.80
2023-02-17T09:55:51.437Z,0.88
2023-02-17T09:58:42.449Z,1.95
2023-02-17T10:01:16.165Z,1.20
2023-02-17T10:03:59.291Z,1.40
2023-02-17T10:06:26.444Z,0.50
2023-02-17T10:09:06.531Z,0.93
2023-02-17T10:11:35.440Z,1.55
2023-02-17T10:14:17.541Z,1.77
2023-02-17T10:17:03.421Z,1.48
2023-02-17T10:19:36.376Z,1.50
2023-02-17T10:22:24.809Z,1.20
2023-02-17T10:24:51.909Z,0.88
2023-02-17T10:28:07.927Z,0.70
2023-02-17T10:31:05.757Z,1.40
2023-02-17T10:33:38.676Z,1.10
2023-02-17T10:37:02.983Z,2.10
2023-02-17T10:39:57.120Z,1.05
2023-02-17T10:42:56.010Z,1.65
2023-02-17T10:45:31.807Z,0.75
2023-02-17T10:48:13.586Z,1.27
2023-02-17T10:50:42.720Z,1.08
2023-02-17T10:53:35.299Z,1.42
2023-02-17T10:56:17.240Z,1.13
2023-02-17T10:58:58.728Z,1.60
2023-02-17T11:01:39.664Z,2.28
2023-02-17T11:04:13.652Z,2.03
2023-02-17T11:06:53.562Z,1.10
2023-02-17T11:09:32.678Z,1.00
2023-02-17T11:12:10.824Z,1.98
2023-02-17T11:14:48.455Z,1.30
2023-02-17T11:20:16.840Z,1.42
2023-02-17T11:23:05.261Z,1.10
2023-02-17T11:25:38.490Z,0.80
2023-02-17T11:28:13.215Z,0.93
2023-02-17T11:30:49.221Z,1.45
2023-02-17T11:33:31.771Z,0.98
2023-02-17T11:36:00.216Z,1.58
2023-02-17T11:38:50.000Z,1.30
2023-02-17T11:41:17.829Z,1.23
2023-02-17T11:46:31.646Z,0.68
2023-02-17T11:49:27.761Z,0.73
2023-02-17T11:52:10.212Z,1.20
2023-02-17T11:55:01.547Z,1.48
2023-02-17T11:57:45.837Z,0.98
2023-02-17T12:00:22.700Z,0.93
2023-02-17T12:03:05.032Z,1.27
2023-02-17T12:06:14.557Z,1.15
2023-02-17T12:09:32.170Z,1.50
2023-02-17T12:12:31.512Z,0.98
2023-02-17T12:15:27.343Z,0.90
2023-02-17T12:18:24.386Z,1.50
2023-02-17T12:21:05.758Z,0.85
2023-02-17T12:24:05.138Z,1.17
2023-02-17T12:26:55.644Z,1.40
2023-02-17T12:29:41.543Z,1.33
2023-02-17T12:32:31.435Z,1.17
2023-02-17T12:35:22.362Z,1.25
2023-02-17T12:38:13.447Z,1.10
2023-02-17T12:41:07.767Z,1.00
2023-02-17T12:43:49.440Z,0.85
2023-02-17T12:46:24.359Z,1.13
2023-02-17T12:48:55.709Z,1.42
2023-02-17T12:51:34.563Z,0.88
2023-02-17T12:54:43.509Z,1.20
2023-02-17T12:57:15.305Z,1.65
2023-02-17T12:59:52.183Z,1.17
2023-02-17T13:02:26.182Z,1.10
2023-02-17T13:05:02.110Z,1.58
2023-02-17T13:07:49.735Z,1.23
2023-02-17T13:10:25.654Z,0.90
2023-02-17T13:13:09.526Z,0.85
2023-02-17T13:15:45.703Z,1.10
2023-02-17T13:18:31.427Z,0.60
2023-02-17T13:21:01.519Z,0.98
2023-02-17T13:23:59.672Z,0.68
2023-02-17T13:26:33.134Z,0.88
2023-02-17T13:29:34.649Z,0.82
2023-02-17T13:32:10.800Z,0.88
2023-02-17T13:34:43.595Z,0.82
2023-02-17T13:37:26.612Z,1.00
2023-02-17T13:39:53.930Z,0.60
2023-02-17T13:42:42.231Z,0.93
2023-02-17T13:45:25.518Z,0.47
2023-02-17T13:47:59.361Z,0.75
2023-02-17T13:50:34.334Z,0.73
2023-02-17T13:53:08.059Z,0.55
2023-02-17T13:55:36.473Z,0.60
2023-02-17T13:58:03.874Z,0.77
2023-02-17T14:00:35.113Z,0.65
2023-02-17T14:03:20.464Z,0.95
2023-02-17T14:08:37.255Z,1.17
2023-02-17T14:11:20.256Z,0.60
2023-02-17T14:13:49.957Z,0.38
2023-02-17T14:16:40.693Z,0.65
2023-02-17T14:19:13.736Z,0.88
2023-02-17T14:21:46.592Z,0.60
2023-02-17T14:24:42.979Z,0.80
2023-02-17T14:27:14.159Z,0.30
2023-02-17T14:29:50.995Z,0.35
2023-02-17T14:32:43.910Z,0.50
2023-02-17T14:35:17.916Z,0.35
2023-02-17T14:37:45.037Z,0.85
2023-02-17T14:40:23.323Z,0.45
2023-02-17T14:42:51.189Z,0.52
2023-02-17T14:47:48.678Z,0.65
2023-02-17T14:50:19.322Z,0.80
2023-02-17T14:52:52.541Z,0.60
2023-02-17T14:55:33.677Z,0.40
2023-02-17T14:58:23.585Z,0.40
2023-02-17T15:00:51.670Z,1.05
2023-02-17T15:03:19.160Z,0.47
2023-02-17T15:05:50.613Z,0.38
2023-02-17T15:08:29.591Z,0.30
2023-02-17T15:10:56.735Z,0.55
2023-02-17T15:13:24.029Z,0.70
2023-02-17T15:15:51.364Z,0.75
2023-02-17T15:18:19.674Z,0.60
2023-02-17T15:20:53.024Z,0.50
2023-02-17T15:23:23.866Z,0.88
2023-02-17T15:25:51.158Z,0.88
2023-02-17T15:28:22.582Z,0.60
2023-02-17T15:30:53.766Z,0.30
2023-02-17T15:33:24.972Z,0.43
2023-02-17T15:35:54.062Z,0.30
2023-02-17T15:38:22.606Z,0.55
2023-02-17T15:40:50.017Z,0.95
2023-02-17T15:43:21.852Z,0.68
2023-02-17T15:45:49.242Z,0.55
2023-02-17T15:50:49.602Z,1.35
2023-02-17T15:53:16.839Z,0.60
2023-02-17T15:55:44.099Z,1.15
2023-02-17T15:58:16.721Z,1.00
2023-02-17T16:00:50.060Z,0.40
2023-02-17T16:03:21.065Z,0.65
2023-02-17T16:05:51.190Z,0.73
2023-02-17T16:08:22.158Z,0.40
2023-02-17T16:10:50.285Z,0.70
2023-02-17T16:13:19.695Z,1.00
2023-02-17T16:15:53.108Z,0.90
2023-02-17T16:18:24.241Z,0.40
2023-02-17T16:20:55.628Z,0.75
2023-02-17T16:23:22.818Z,0.60
2023-02-17T16:25:53.060Z,0.60
2023-02-17T16:28:22.029Z,1.00
2023-02-17T16:30:49.894Z,1.05
2023-02-17T16:33:21.922Z,0.68
2023-02-17T16:35:50.900Z,0.52
2023-02-17T16:38:23.657Z,1.08
2023-02-17T16:40:55.800Z,0.57
2023-02-17T16:43:27.669Z,0.68
2023-02-17T16:46:01.798Z,0.63
2023-02-17T16:48:33.967Z,1.08
2023-02-17T16:51:01.473Z,0.75
2023-02-17T16:53:31.395Z,0.73
2023-02-17T16:55:58.939Z,0.50
2023-02-17T16:58:26.657Z,0.98
2023-02-17T17:00:55.987Z,0.52
2023-02-17T17:03:26.875Z,0.60
2023-02-17T17:05:54.088Z,1.55
2023-02-17T17:08:22.138Z,0.88
2023-02-17T17:10:49.831Z,0.60
2023-02-17T17:13:17.121Z,0.77
2023-02-17T17:15:45.334Z,0.57
2023-02-17T17:18:24.185Z,0.28
2023-02-17T17:20:51.294Z,1.00
2023-02-17T17:23:19.157Z,0.35
2023-02-17T17:28:17.846Z,0.43
2023-02-17T17:30:51.125Z,0.73
2023-02-17T17:33:18.256Z,0.70
2023-02-17T17:35:52.808Z,0.57
2023-02-17T17:38:19.865Z,1.20
2023-02-17T17:41:01.161Z,1.17
2023-02-17T17:43:28.263Z,0.70
2023-02-17T17:46:01.102Z,0.70
2023-02-17T17:48:31.483Z,0.40
2023-02-17T17:50:59.103Z,0.85
2023-02-17T17:53:33.862Z,0.50
2023-02-17T17:56:00.944Z,0.50
2023-02-17T17:58:28.800Z,0.60
2023-02-17T18:00:55.926Z,0.60
2023-02-17T18:03:23.173Z,0.95
2023-02-17T18:05:53.557Z,1.17
2023-02-17T18:08:20.704Z,0.70
2023-02-17T18:10:47.829Z,0.70
2023-02-17T18:13:35.803Z,1.08
2023-02-17T18:16:02.990Z,0.60
2023-02-17T18:18:33.595Z,0.50
2023-02-17T18:21:00.751Z,1.55
2023-02-17T18:23:39.945Z,1.00
2023-02-17T18:26:12.061Z,1.05
2023-02-17T18:28:40.430Z,1.60
2023-02-17T18:33:38.847Z,0.93
2023-02-17T18:36:08.692Z,0.55
2023-02-17T18:38:36.221Z,1.20
2023-02-17T18:41:04.590Z,0.50
2023-02-17T18:43:32.585Z,1.17
2023-02-17T18:46:00.086Z,0.75
2023-02-17T18:48:35.644Z,1.55
2023-02-17T18:51:08.287Z,0.68
2023-02-17T18:53:35.984Z,0.98
2023-02-17T18:56:03.554Z,0.95
2023-02-17T18:58:30.605Z,1.00
2023-02-17T19:01:09.387Z,0.95
2023-02-17T19:03:36.475Z,0.63
2023-02-17T19:06:12.198Z,0.70
2023-02-17T19:08:40.782Z,0.57
2023-02-17T19:11:10.006Z,0.70
2023-02-17T19:13:37.584Z,0.65
2023-02-17T19:16:12.111Z,1.23
2023-02-17T19:18:41.880Z,0.63
2023-02-17T19:21:13.201Z,0.63
2023-02-17T19:23:41.785Z,1.00
2023-02-17T19:26:12.796Z,1.10
2023-02-17T19:28:41.412Z,0.95
2023-02-17T19:31:12.926Z,1.40
2023-02-17T19:33:40.314Z,1.13
2023-02-17T19:36:12.830Z,1.17
2023-02-17T19:38:40.044Z,1.17
2023-02-17T19:41:09.043Z,0.73
2023-02-17T19:43:39.373Z,1.15
2023-02-17T19:46:18.115Z,0.50
2023-02-17T19:48:45.894Z,0.45
2023-02-17T19:51:14.150Z,0.50
2023-02-17T19:53:43.094Z,0.68
2023-02-17T19:56:25.203Z,1.08
2023-02-17T19:59:04.233Z,1.00
2023-02-17T20:01:33.529Z,1.23
2023-02-17T20:04:05.080Z,0.90
2023-02-17T20:06:40.846Z,0.75
2023-02-17T20:09:15.437Z,1.33
2023-02-17T20:11:47.713Z,1.00
2023-02-17T20:14:15.110Z,0.65
2023-02-17T20:16:42.239Z,1.52
2023-02-17T20:19:10.244Z,1.08
2023-02-17T20:24:07.747Z,0.88
2023-02-17T20:26:40.423Z,1.05
2023-02-17T20:29:08.339Z,1.25
2023-02-17T20:34:05.257Z,1.88
2023-02-17T20:36:34.982Z,1.05
2023-02-17T20:39:02.886Z,0.98
2023-02-17T20:41:30.015Z,1.42
2023-02-17T20:44:01.566Z,1.13
2023-02-17T20:46:29.542Z,0.75
2023-02-17T20:51:37.750Z,0.95
2023-02-17T20:54:05.077Z,1.38
2023-02-17T20:56:37.796Z,0.70
2023-02-17T20:59:11.841Z,1.25
2023-02-17T21:01:40.046Z,1.90
2023-02-17T21:04:10.753Z,1.05
2023-02-17T21:06:43.111Z,1.33
2023-02-17T21:09:16.185Z,0.82
2023-02-17T21:11:45.539Z,0.68
2023-02-17T21:14:13.203Z,1.00
2023-02-17T21:16:45.153Z,1.15
2023-02-17T21:19:17.713Z,0.95
2023-02-17T21:21:51.512Z,1.27
2023-02-17T21:24:28.038Z,1.17
2023-02-17T21:26:55.073Z,1.00
2023-02-17T21:29:22.347Z,1.38
2023-02-17T21:31:49.816Z,0.60
2023-02-17T21:34:16.980Z,0.77
2023-02-17T21:36:44.367Z,1.02
2023-02-17T21:39:11.727Z,1.65
2023-02-17T21:41:45.179Z,0.85
2023-02-17T21:44:31.692Z,1.50
2023-02-17T21:47:04.324Z,2.42
2023-02-17T21:49:34.040Z,1.95
2023-02-17T21:52:07.136Z,0.85
2023-02-17T21:54:34.215Z,1.08
2023-02-17T21:57:06.240Z,1.02
2023-02-17T21:59:33.447Z,1.70
2023-02-17T22:02:00.534Z,1.08
2023-02-17T22:04:36.806Z,0.82
2023-02-17T22:07:04.041Z,0.85
2023-02-17T22:09:31.087Z,1.00
2023-02-17T22:11:58.169Z,1.15
2023-02-17T22:14:28.593Z,0.35
2023-02-17T22:16:58.272Z,0.75
2023-02-17T22:19:25.727Z,1.13
2023-02-17T22:21:55.295Z,0.73
2023-02-17T22:24:27.373Z,0.95
2023-02-17T22:26:56.270Z,0.65
2023-02-17T22:29:26.271Z,1.40
2023-02-17T22:32:00.474Z,0.50
2023-02-17T22:34:28.718Z,0.60
2023-02-17T22:36:58.699Z,0.40
2023-02-17T22:39:26.278Z,0.88
2023-02-17T22:41:53.720Z,0.95
2023-02-17T22:44:24.377Z,1.00
2023-02-17T22:46:51.555Z,0.98
2023-02-17T22:49:18.759Z,0.20
2023-02-17T22:51:49.050Z,0.73
2023-02-17T22:54:16.150Z,0.20
2023-02-17T22:56:43.346Z,0.73
2023-02-17T22:59:10.621Z,0.30
2023-02-17T23:01:40.632Z,0.50
2023-02-17T23:04:16.647Z,0.70
2023-02-17T23:06:48.604Z,0.50
2023-02-17T23:09:18.857Z,0.73
2023-02-17T23:11:50.159Z,0.45
2023-02-17T23:14:32.303Z,1.10
2023-02-17T23:17:04.910Z,0.93
2023-02-17T23:19:32.564Z,0.63
2023-02-17T23:22:03.758Z,1.27
2023-02-17T23:24:33.123Z,1.05
2023-02-17T23:27:00.818Z,0.50
2023-02-17T23:29:35.813Z,0.93
2023-02-17T23:32:04.448Z,0.40
2023-02-17T23:34:31.624Z,0.50
2023-02-17T23:36:58.927Z,0.43
2023-02-17T23:39:29.284Z,0.85
2023-02-17T23:41:56.499Z,0.95
2023-02-17T23:44:25.482Z,0.90
2023-02-17T23:46:59.307Z,0.60
2023-02-17T23:49:32.551Z,0.50
2023-02-17T23:52:02.829Z,0.20
2023-02-17T23:54:32.464Z,0.60
2023-02-17T23:57:03.197Z,0.60
2023-02-17T23:59:30.744Z,0.30
